createdAt,value
2018-06-16T00:00:21.753Z,15.00
2018-06-16T00:02:49.964Z,14.90
2018-06-16T00:05:18.186Z,14.90
2018-06-16T00:07:46.408Z,14.90
2018-06-16T00:10:14.660Z,14.90
2018-06-16T00:12:43.192Z,15.00
2018-06-16T00:15:11.426Z,14.90
2018-06-16T00:17:39.625Z,14.90
2018-06-16T00:20:11.922Z,14.90
2018-06-16T00:22:40.233Z,14.90
2018-06-16T00:25:08.929Z,14.90
2018-06-16T00:27:38.312Z,14.80
2018-06-16T00:30:06.584Z,14.80
2018-06-16T00:32:34.892Z,14.70
2018-06-16T00:37:31.109Z,14.70
2018-06-16T00:40:00.809Z,14.60
2018-06-16T00:42:29.051Z,14.50
2018-06-16T00:44:58.379Z,14.40
2018-06-16T00:54:31.620Z,14.40
2018-06-16T00:58:09.707Z,14.40
2018-06-16T01:00:37.943Z,14.20
2018-06-16T01:03:06.167Z,14.10
2018-06-16T01:05:34.393Z,14.10
2018-06-16T01:08:02.665Z,14.00
2018-06-16T01:10:31.460Z,14.00
2018-06-16T01:12:59.684Z,14.00
2018-06-16T01:18:19.130Z,13.90
2018-06-16T01:20:47.455Z,13.80
2018-06-16T01:23:15.651Z,13.80
2018-06-16T01:25:43.847Z,13.80
2018-06-16T01:28:12.043Z,13.70
2018-06-16T01:33:08.471Z,13.70
2018-06-16T01:35:36.663Z,13.60
2018-06-16T01:38:07.865Z,13.70
2018-06-16T01:40:36.067Z,13.70
2018-06-16T01:43:04.291Z,13.60
2018-06-16T01:45:32.466Z,13.60
2018-06-16T01:48:00.665Z,13.60
2018-06-16T01:50:28.874Z,13.60
2018-06-16T01:52:57.088Z,13.60
2018-06-16T01:55:25.877Z,13.60
2018-06-16T01:57:54.078Z,13.60
2018-06-16T02:00:23.042Z,13.50
2018-06-16T02:02:51.226Z,13.50
2018-06-16T02:07:48.034Z,13.40
2018-06-16T02:10:16.223Z,13.40
2018-06-16T02:12:44.766Z,13.40
2018-06-16T02:15:13.009Z,13.30
2018-06-16T02:17:41.502Z,13.30
2018-06-16T02:20:09.837Z,13.30
2018-06-16T02:22:42.060Z,13.20
2018-06-16T02:25:10.304Z,13.20
2018-06-16T02:27:39.257Z,13.20
2018-06-16T02:30:08.264Z,13.20
2018-06-16T02:32:36.487Z,13.20
2018-06-16T02:35:04.692Z,13.20
2018-06-16T02:37:37.530Z,13.20
2018-06-16T02:40:05.815Z,13.20
2018-06-16T02:45:02.017Z,13.10
2018-06-16T02:47:30.229Z,13.10
2018-06-16T02:49:58.469Z,13.00
2018-06-16T02:52:26.656Z,13.00
2018-06-16T02:54:54.905Z,13.00
2018-06-16T02:57:23.131Z,13.00
2018-06-16T02:59:51.376Z,12.90
2018-06-16T03:02:19.662Z,12.80
2018-06-16T03:04:47.991Z,12.90
2018-06-16T03:07:16.196Z,12.90
2018-06-16T03:09:44.824Z,12.80
2018-06-16T03:12:16.912Z,12.80
2018-06-16T03:17:13.083Z,12.80
2018-06-16T03:19:41.301Z,12.70
2018-06-16T03:22:09.754Z,12.80
2018-06-16T03:24:37.959Z,12.80
2018-06-16T03:27:09.251Z,12.80
2018-06-16T03:29:37.500Z,12.80
2018-06-16T03:32:05.752Z,12.80
2018-06-16T03:34:34.020Z,12.80
2018-06-16T03:39:34.526Z,12.80
2018-06-16T03:42:03.440Z,12.90
2018-06-16T03:44:31.648Z,12.90
2018-06-16T03:46:59.890Z,13.00
2018-06-16T03:49:29.428Z,13.00
2018-06-16T03:51:58.367Z,13.10
2018-06-16T03:54:36.759Z,13.30
2018-06-16T03:57:04.972Z,13.80
2018-06-16T04:02:01.148Z,15.10
2018-06-16T04:04:30.210Z,15.40
2018-06-16T04:06:58.672Z,15.60
2018-06-16T04:09:26.867Z,16.10
2018-06-16T04:12:06.645Z,16.70
2018-06-16T04:14:35.124Z,17.30
2018-06-16T04:17:09.887Z,18.10
2018-06-16T04:19:38.102Z,18.60
2018-06-16T04:22:06.307Z,19.00
2018-06-16T04:24:38.111Z,19.40
2018-06-16T04:27:06.344Z,20.00
2018-06-16T04:29:34.580Z,20.50
2018-06-16T04:32:02.813Z,21.00
2018-06-16T04:34:30.995Z,21.40
2018-06-16T04:36:59.209Z,21.80
2018-06-16T04:39:29.206Z,22.20
2018-06-16T04:42:02.108Z,22.30
2018-06-16T04:44:30.327Z,22.70
2018-06-16T04:46:58.783Z,23.20
2018-06-16T04:49:27.191Z,23.60
2018-06-16T04:51:56.236Z,24.00
2018-06-16T04:54:24.475Z,24.50
2018-06-16T04:56:52.963Z,24.80
2018-06-16T04:59:21.504Z,25.20
2018-06-16T05:01:49.779Z,25.20
2018-06-16T05:04:18.031Z,25.60
2018-06-16T05:06:46.231Z,26.10
2018-06-16T05:09:14.458Z,26.40
2018-06-16T05:11:46.640Z,26.70
2018-06-16T05:14:14.839Z,27.00
2018-06-16T05:16:43.086Z,27.50
2018-06-16T05:19:11.300Z,27.80
2018-06-16T05:24:08.288Z,28.00
2018-06-16T05:26:36.461Z,28.20
2018-06-16T05:29:04.741Z,28.40
2018-06-16T05:31:32.907Z,28.60
2018-06-16T05:34:01.856Z,28.90
2018-06-16T05:36:30.104Z,29.10
2018-06-16T05:38:58.552Z,29.40
2018-06-16T05:41:32.740Z,29.70
2018-06-16T05:44:00.932Z,29.90
2018-06-16T05:46:29.151Z,30.10
2018-06-16T05:48:57.682Z,30.20
2018-06-16T05:53:53.872Z,30.60
2018-06-16T05:56:27.632Z,30.80
2018-06-16T05:58:55.873Z,31.10
2018-06-16T06:01:24.133Z,31.20
2018-06-16T06:03:52.948Z,31.40
2018-06-16T06:06:21.248Z,31.30
2018-06-16T06:08:49.791Z,31.20
2018-06-16T06:11:22.211Z,31.30
2018-06-16T06:13:51.452Z,31.40
2018-06-16T06:16:19.681Z,31.50
2018-06-16T06:18:48.546Z,31.30
2018-06-16T06:21:17.802Z,31.20
2018-06-16T06:23:45.992Z,31.10
2018-06-16T06:26:17.113Z,31.10
2018-06-16T06:28:45.846Z,31.00
2018-06-16T06:31:14.780Z,31.10
2018-06-16T06:33:43.045Z,31.00
2018-06-16T06:36:11.292Z,30.90
2018-06-16T06:38:39.685Z,30.80
2018-06-16T06:41:07.972Z,30.40
2018-06-16T06:43:36.168Z,30.10
2018-06-16T06:46:04.373Z,29.50
2018-06-16T06:48:32.700Z,28.40
2018-06-16T06:51:01.280Z,26.80
2018-06-16T06:53:30.483Z,25.50
2018-06-16T06:55:59.387Z,24.40
2018-06-16T06:58:27.714Z,23.60
2018-06-16T07:00:56.844Z,23.10
2018-06-16T07:03:25.130Z,22.70
2018-06-16T07:05:54.713Z,22.50
2018-06-16T07:08:23.284Z,22.40
2018-06-16T07:10:51.545Z,22.20
2018-06-16T07:13:20.455Z,22.10
2018-06-16T07:15:49.420Z,22.00
2018-06-16T07:20:45.616Z,21.80
2018-06-16T07:23:14.328Z,21.70
2018-06-16T07:25:42.899Z,21.70
2018-06-16T07:28:11.091Z,21.70
2018-06-16T07:30:39.355Z,21.70
2018-06-16T07:33:07.561Z,21.70
2018-06-16T07:35:36.382Z,21.80
2018-06-16T07:38:04.596Z,21.90
2018-06-16T07:40:33.925Z,22.00
2018-06-16T07:45:34.546Z,22.30
2018-06-16T07:48:02.763Z,22.30
2018-06-16T07:50:31.023Z,22.40
2018-06-16T07:55:27.372Z,22.50
2018-06-16T07:57:55.647Z,22.50
2018-06-16T08:00:24.204Z,22.50
2018-06-16T08:02:52.483Z,22.50
2018-06-16T08:05:20.648Z,22.60
2018-06-16T08:07:48.924Z,22.70
2018-06-16T08:10:17.155Z,22.90
2018-06-16T08:12:45.523Z,22.90
2018-06-16T08:15:13.771Z,23.00
2018-06-16T08:20:11.960Z,23.10
2018-06-16T08:22:41.343Z,23.20
2018-06-16T08:25:09.784Z,23.30
2018-06-16T08:27:39.434Z,23.30
2018-06-16T08:30:08.661Z,23.40
2018-06-16T08:32:36.896Z,23.50
2018-06-16T08:35:05.356Z,23.50
2018-06-16T08:37:37.765Z,23.60
2018-06-16T08:40:06.983Z,23.80
2018-06-16T08:42:35.883Z,23.80
2018-06-16T08:45:08.511Z,23.80
2018-06-16T08:47:36.974Z,23.80
2018-06-16T08:50:05.487Z,23.90
2018-06-16T08:55:02.751Z,23.90
2018-06-16T08:57:31.215Z,23.90
2018-06-16T08:59:59.657Z,24.00
2018-06-16T09:02:27.904Z,24.10
2018-06-16T09:04:56.144Z,24.10
2018-06-16T09:07:24.417Z,24.20
2018-06-16T09:09:52.658Z,24.30
2018-06-16T09:12:20.892Z,24.40
2018-06-16T09:14:53.650Z,24.40
2018-06-16T09:17:21.902Z,24.60
2018-06-16T09:19:50.170Z,24.70
2018-06-16T09:22:18.386Z,24.80
2018-06-16T09:24:46.557Z,24.90
2018-06-16T09:27:14.745Z,25.00
2018-06-16T09:32:11.209Z,25.20
2018-06-16T09:34:39.455Z,25.40
2018-06-16T09:37:07.761Z,25.50
2018-06-16T09:39:35.983Z,25.40
2018-06-16T09:42:04.200Z,25.20
2018-06-16T09:44:36.056Z,25.30
2018-06-16T09:47:04.248Z,25.30
2018-06-16T09:52:00.448Z,25.50
2018-06-16T09:54:29.276Z,25.60
2018-06-16T09:56:58.223Z,25.80
2018-06-16T09:59:26.452Z,25.80
2018-06-16T10:04:23.399Z,25.80
2018-06-16T10:06:51.632Z,25.90
2018-06-16T10:09:19.910Z,25.90
2018-06-16T10:11:48.602Z,26.00
2018-06-16T10:14:17.328Z,25.90
2018-06-16T10:16:48.828Z,25.90
2018-06-16T10:19:17.062Z,25.90
2018-06-16T10:21:45.307Z,25.90
2018-06-16T10:26:42.087Z,25.90
2018-06-16T10:29:10.304Z,25.90
2018-06-16T10:31:41.783Z,26.00
2018-06-16T10:34:10.000Z,26.00
2018-06-16T10:36:39.249Z,26.10
2018-06-16T10:39:08.563Z,26.30
2018-06-16T10:41:37.035Z,26.60
2018-06-16T10:44:07.209Z,26.90
2018-06-16T10:46:35.557Z,27.10
2018-06-16T10:49:04.864Z,27.50
2018-06-16T10:51:33.209Z,27.70
2018-06-16T10:54:01.549Z,28.00
2018-06-16T10:58:57.810Z,28.60
2018-06-16T11:01:26.700Z,28.90
2018-06-16T11:03:55.008Z,29.00
2018-06-16T11:06:24.038Z,29.10
2018-06-16T11:08:52.304Z,29.20
2018-06-16T11:11:20.610Z,29.40
2018-06-16T11:13:49.184Z,28.90
2018-06-16T11:16:25.098Z,28.90
2018-06-16T11:18:53.573Z,29.00
2018-06-16T11:21:21.798Z,28.80
2018-06-16T11:26:19.712Z,28.50
2018-06-16T11:31:19.104Z,28.50
2018-06-16T11:33:47.372Z,28.50
2018-06-16T11:36:15.637Z,28.60
2018-06-16T11:38:43.811Z,28.40
2018-06-16T11:41:12.844Z,28.10
2018-06-16T11:43:41.089Z,28.30
2018-06-16T11:48:38.206Z,28.30
2018-06-16T11:53:35.268Z,28.20
2018-06-16T11:58:32.393Z,29.00
2018-06-16T12:01:00.597Z,29.40
2018-06-16T12:03:34.503Z,29.60
2018-06-16T12:06:02.883Z,29.30
2018-06-16T12:08:31.089Z,29.40
2018-06-16T12:13:28.241Z,29.30
2018-06-16T12:15:57.454Z,29.00
2018-06-16T12:18:25.715Z,28.90
2018-06-16T12:20:53.967Z,28.80
2018-06-16T12:23:22.164Z,28.70
2018-06-16T12:25:50.372Z,28.80
2018-06-16T12:28:18.591Z,28.80
2018-06-16T12:30:46.810Z,29.10
2018-06-16T12:35:42.981Z,28.50
2018-06-16T12:40:39.114Z,28.10
2018-06-16T12:43:07.327Z,28.00
2018-06-16T12:45:35.554Z,27.80
2018-06-16T12:48:06.932Z,27.90
2018-06-16T12:50:35.144Z,27.90
2018-06-16T12:53:05.137Z,28.20
2018-06-16T12:55:33.339Z,28.10
2018-06-16T12:58:01.960Z,27.60
2018-06-16T13:00:30.172Z,27.60
2018-06-16T13:02:59.333Z,27.80
2018-06-16T13:05:27.600Z,28.10
2018-06-16T13:07:56.186Z,28.30
2018-06-16T13:10:24.477Z,28.50
2018-06-16T13:12:52.636Z,28.80
2018-06-16T13:20:17.140Z,28.80
2018-06-16T13:22:45.617Z,28.50
2018-06-16T13:25:14.248Z,28.30
2018-06-16T13:30:12.709Z,27.80
2018-06-16T13:32:41.204Z,27.90
2018-06-16T13:35:09.452Z,28.10
2018-06-16T13:37:37.640Z,28.10
2018-06-16T13:40:05.901Z,28.20
2018-06-16T13:42:34.101Z,28.40
2018-06-16T13:45:02.327Z,28.80
2018-06-16T13:47:30.523Z,29.20
2018-06-16T13:49:59.255Z,29.60
2018-06-16T13:52:27.476Z,29.80
2018-06-16T13:54:55.860Z,30.00
2018-06-16T13:57:24.073Z,30.10
2018-06-16T13:59:52.288Z,30.30
2018-06-16T14:02:20.517Z,30.60
2018-06-16T14:04:48.995Z,30.50
2018-06-16T14:07:17.843Z,30.40
2018-06-16T14:09:46.058Z,30.40
2018-06-16T14:12:14.235Z,30.40
2018-06-16T14:14:42.716Z,30.40
2018-06-16T14:17:10.910Z,30.40
2018-06-16T14:19:43.375Z,30.20
2018-06-16T14:22:11.577Z,30.10
2018-06-16T14:27:07.834Z,29.90
2018-06-16T14:29:36.521Z,29.80
2018-06-16T14:32:04.931Z,29.70
2018-06-16T14:34:37.039Z,29.70
2018-06-16T14:37:05.670Z,29.70
2018-06-16T14:39:33.979Z,29.80
2018-06-16T14:42:03.180Z,29.70
2018-06-16T14:44:31.381Z,29.60
2018-06-16T14:46:59.642Z,29.60
2018-06-16T14:52:00.043Z,29.30
2018-06-16T14:54:28.776Z,28.50
2018-06-16T14:56:57.032Z,27.90
2018-06-16T14:59:25.277Z,27.50
2018-06-16T15:04:22.047Z,27.40
2018-06-16T15:06:50.269Z,27.40
2018-06-16T15:09:18.568Z,27.50
2018-06-16T15:11:46.784Z,27.50
2018-06-16T15:14:15.020Z,27.50
2018-06-16T15:16:43.974Z,27.50
2018-06-16T15:31:20.783Z,27.60
2018-06-16T15:33:49.026Z,28.00
2018-06-16T15:36:17.400Z,28.00
2018-06-16T15:38:46.158Z,28.10
2018-06-16T15:43:43.515Z,28.10
2018-06-16T15:46:11.807Z,27.70
2018-06-16T15:48:40.600Z,27.30
2018-06-16T15:55:54.487Z,26.80
2018-06-16T15:58:22.908Z,26.90
2018-06-16T16:00:51.186Z,26.90
2018-06-16T16:03:19.401Z,26.80
2018-06-16T16:05:52.044Z,26.50
2018-06-16T16:08:20.301Z,26.40
2018-06-16T16:10:48.494Z,26.40
2018-06-16T16:13:16.732Z,26.50
2018-06-16T16:15:44.943Z,26.40
2018-06-16T16:18:13.123Z,26.40
2018-06-16T16:20:41.353Z,26.30
2018-06-16T16:23:09.882Z,26.20
2018-06-16T16:28:06.071Z,25.90
2018-06-16T16:30:34.330Z,25.80
2018-06-16T16:33:02.624Z,25.80
2018-06-16T16:35:30.781Z,25.80
2018-06-16T16:38:02.589Z,25.90
2018-06-16T16:40:30.864Z,25.90
2018-06-16T16:42:59.091Z,25.90
2018-06-16T16:45:27.737Z,26.00
2018-06-16T16:47:55.896Z,25.90
2018-06-16T16:50:24.106Z,26.00
2018-06-16T16:52:52.299Z,26.00
2018-06-16T16:55:20.580Z,26.10
2018-06-16T16:57:48.780Z,26.20
2018-06-16T17:02:51.709Z,26.10
2018-06-16T17:05:20.143Z,26.10
2018-06-16T17:07:51.387Z,26.00
2018-06-16T17:10:19.615Z,25.90
2018-06-16T17:12:48.403Z,25.90
2018-06-16T17:15:16.632Z,25.70
2018-06-16T17:17:44.856Z,25.60
2018-06-16T17:20:13.059Z,25.50
2018-06-16T17:22:45.335Z,25.40
2018-06-16T17:25:14.094Z,25.30
2018-06-16T17:27:42.263Z,25.20
2018-06-16T17:30:10.506Z,25.10
2018-06-16T17:32:38.813Z,25.00
2018-06-16T17:35:06.991Z,25.00
2018-06-16T17:37:38.732Z,24.90
2018-06-16T17:40:07.010Z,24.80
2018-06-16T17:42:35.235Z,24.70
2018-06-16T17:45:03.835Z,24.60
2018-06-16T17:47:32.140Z,24.50
2018-06-16T17:50:00.367Z,24.50
2018-06-16T17:52:28.591Z,24.50
2018-06-16T17:54:56.809Z,24.50
2018-06-16T17:57:24.991Z,24.60
2018-06-16T17:59:53.813Z,24.40
2018-06-16T18:02:22.908Z,24.40
2018-06-16T18:04:51.252Z,24.30
2018-06-16T18:07:20.002Z,24.20
2018-06-16T18:09:48.476Z,24.20
2018-06-16T18:12:16.710Z,24.20
2018-06-16T18:14:44.947Z,24.20
2018-06-16T18:17:13.146Z,24.10
2018-06-16T18:19:41.317Z,24.10
2018-06-16T18:22:09.547Z,24.00
2018-06-16T18:24:37.719Z,23.90
2018-06-16T18:27:05.924Z,23.90
2018-06-16T18:29:34.196Z,24.00
2018-06-16T18:32:02.420Z,23.90
2018-06-16T18:34:30.591Z,24.00
2018-06-16T18:36:58.795Z,23.90
2018-06-16T18:39:27.176Z,23.90
2018-06-16T18:41:55.397Z,23.90
2018-06-16T18:44:23.879Z,23.90
2018-06-16T18:46:52.113Z,23.80
2018-06-16T18:49:20.383Z,23.80
2018-06-16T18:51:48.572Z,24.00
2018-06-16T18:56:50.225Z,24.00
2018-06-16T18:59:18.443Z,23.80
2018-06-16T19:01:47.147Z,23.50
2018-06-16T19:04:15.343Z,23.50
2018-06-16T19:06:43.578Z,23.40
2018-06-16T19:09:15.500Z,23.30
2018-06-16T19:11:43.720Z,23.30
2018-06-16T19:14:12.098Z,23.20
2018-06-16T19:19:08.831Z,23.30
2018-06-16T19:24:05.115Z,23.20
2018-06-16T19:26:34.074Z,23.00
2018-06-16T19:29:02.649Z,22.90
2018-06-16T19:31:30.910Z,22.70
2018-06-16T19:33:59.144Z,22.70
2018-06-16T19:36:27.321Z,22.60
2018-06-16T19:41:24.568Z,22.50
2018-06-16T19:46:21.428Z,22.50
2018-06-16T19:48:49.663Z,22.40
2018-06-16T19:51:17.852Z,22.30
2018-06-16T19:53:46.060Z,22.30
2018-06-16T19:56:17.561Z,22.20
2018-06-16T19:58:46.531Z,22.10
2018-06-16T20:01:15.796Z,22.10
2018-06-16T20:03:45.924Z,22.00
2018-06-16T20:06:14.204Z,22.00
2018-06-16T20:11:11.855Z,21.90
2018-06-16T20:13:40.968Z,21.90
2018-06-16T20:16:09.280Z,21.90
2018-06-16T20:18:37.545Z,22.00
2018-06-16T20:21:05.830Z,22.00
2018-06-16T20:23:34.127Z,22.00
2018-06-16T20:26:07.013Z,22.00
2018-06-16T20:28:35.279Z,21.90
2018-06-16T20:31:03.895Z,21.90
2018-06-16T20:33:33.672Z,21.80
2018-06-16T20:38:30.805Z,21.80
2018-06-16T20:41:03.620Z,21.70
2018-06-16T20:43:32.183Z,21.70
2018-06-16T20:48:28.537Z,21.70
2018-06-16T20:50:56.809Z,21.60
2018-06-16T20:53:25.321Z,21.60
2018-06-16T20:55:56.539Z,21.50
2018-06-16T20:58:25.775Z,21.50
2018-06-16T21:00:54.045Z,21.50
2018-06-16T21:03:23.228Z,21.50
2018-06-16T21:08:23.053Z,21.50
2018-06-16T21:13:25.052Z,21.50
2018-06-16T21:18:22.432Z,21.40
2018-06-16T21:20:50.622Z,21.30
2018-06-16T21:23:20.375Z,21.20
2018-06-16T21:25:48.587Z,21.20
2018-06-16T21:28:20.443Z,21.10
2018-06-16T21:30:48.700Z,21.10
2018-06-16T21:33:17.450Z,21.10
2018-06-16T21:35:45.667Z,21.10
2018-06-16T21:38:14.591Z,21.10
2018-06-16T21:40:42.792Z,21.10
2018-06-16T21:43:14.384Z,21.00
2018-06-16T21:45:43.295Z,20.80
2018-06-16T21:48:11.491Z,20.70
2018-06-16T21:50:40.090Z,20.50
2018-06-16T21:53:08.268Z,20.40
2018-06-16T21:55:36.450Z,20.30
2018-06-16T21:58:08.261Z,20.10
2018-06-16T22:00:36.664Z,20.10
2018-06-16T22:03:06.496Z,20.00
2018-06-16T22:08:08.944Z,19.80
2018-06-16T22:10:37.167Z,19.70
2018-06-16T22:13:09.182Z,19.60
2018-06-16T22:15:37.410Z,19.50
2018-06-16T22:18:06.535Z,19.50
2018-06-16T22:20:34.737Z,19.50
2018-06-16T22:23:02.987Z,19.40
2018-06-16T22:28:02.423Z,19.20
2018-06-16T22:30:30.609Z,19.10
2018-06-16T22:32:59.081Z,19.00
2018-06-16T22:35:30.831Z,18.90
2018-06-16T22:37:59.280Z,18.80
2018-06-16T22:40:28.086Z,18.70
2018-06-16T22:43:01.547Z,18.70
2018-06-16T22:45:29.780Z,18.70
2018-06-16T22:47:57.973Z,18.70
2018-06-16T22:50:26.204Z,18.60
2018-06-16T22:52:54.485Z,18.60
2018-06-16T22:55:22.719Z,18.50
2018-06-16T22:57:58.073Z,18.40
2018-06-16T23:00:27.479Z,18.30
2018-06-16T23:02:56.663Z,18.20
2018-06-16T23:05:24.840Z,18.20
2018-06-16T23:10:23.056Z,18.40
2018-06-16T23:12:55.691Z,18.50
2018-06-16T23:17:52.615Z,18.40
2018-06-16T23:20:20.865Z,18.30
2018-06-16T23:22:49.179Z,18.30
2018-06-16T23:25:17.385Z,18.10
2018-06-16T23:27:45.605Z,18.10
2018-06-16T23:32:42.020Z,18.00
2018-06-16T23:35:10.270Z,18.00
2018-06-16T23:37:38.607Z,18.10
2018-06-16T23:40:06.834Z,18.00
2018-06-16T23:42:35.051Z,17.90
2018-06-16T23:45:03.591Z,17.90
2018-06-16T23:47:31.767Z,17.80
2018-06-16T23:49:59.996Z,17.80
2018-06-16T23:54:56.784Z,17.80
2018-06-16T23:57:24.983Z,17.70
2018-06-16T23:59:53.912Z,17.70
